createdAt,value
2018-12-30T00:03:05.888Z,2.10
2018-12-30T00:05:34.710Z,1.30
2018-12-30T00:08:03.543Z,4.10
2018-12-30T00:10:32.113Z,4.00
2018-12-30T00:13:00.931Z,2.60
2018-12-30T00:15:30.111Z,4.37
2018-12-30T00:17:58.667Z,7.00
2018-12-30T00:20:27.238Z,5.63
2018-12-30T00:22:55.819Z,4.63
2018-12-30T00:25:24.620Z,3.73
2018-12-30T00:27:54.929Z,3.73
2018-12-30T00:30:23.507Z,5.63
2018-12-30T00:32:52.078Z,8.90
2018-12-30T00:35:20.634Z,4.20
2018-12-30T00:37:49.195Z,5.40
2018-12-30T00:40:37.247Z,3.23
2018-12-30T00:43:05.810Z,20.40
2018-12-30T00:45:37.812Z,4.73
2018-12-30T00:50:40.511Z,6.57
2018-12-30T00:53:09.112Z,6.83
2018-12-30T00:55:45.271Z,4.73
2018-12-30T00:58:13.831Z,10.30
2018-12-30T01:00:42.385Z,8.33
2018-12-30T01:03:10.947Z,4.17
2018-12-30T01:05:39.510Z,5.93
2018-12-30T01:10:42.898Z,6.00
2018-12-30T01:13:11.458Z,2.13
2018-12-30T01:15:41.778Z,8.00
2018-12-30T01:18:10.329Z,1.43
2018-12-30T01:20:58.191Z,3.07
2018-12-30T01:23:46.110Z,4.00
2018-12-30T01:26:14.707Z,2.20
2018-12-30T01:28:43.260Z,1.23
2018-12-30T01:31:11.831Z,2.10
2018-12-30T01:33:40.388Z,3.23
2018-12-30T01:36:09.143Z,2.97
2018-12-30T01:38:37.730Z,3.53
2018-12-30T01:41:06.443Z,7.23
2018-12-30T01:43:35.256Z,1.33
2018-12-30T01:46:04.265Z,3.03
2018-12-30T01:51:22.176Z,4.43
2018-12-30T01:53:50.779Z,3.63
2018-12-30T01:56:19.341Z,4.13
2018-12-30T01:58:48.192Z,4.30
2018-12-30T02:01:16.739Z,6.60
2018-12-30T02:03:45.318Z,7.10
2018-12-30T02:06:13.879Z,6.30
2018-12-30T02:08:42.462Z,6.70
2018-12-30T02:11:11.295Z,5.53
2018-12-30T02:13:39.880Z,5.10
2018-12-30T02:16:08.451Z,5.43
2018-12-30T02:18:37.033Z,7.13
2018-12-30T02:21:05.591Z,11.10
2018-12-30T02:23:34.171Z,11.93
2018-12-30T02:26:02.737Z,19.43
2018-12-30T02:28:31.525Z,8.47
2018-12-30T02:33:47.722Z,15.00
2018-12-30T02:36:16.276Z,12.83
2018-12-30T02:38:44.848Z,13.93
2018-12-30T02:41:13.398Z,16.07
2018-12-30T02:43:41.991Z,10.97
2018-12-30T02:46:10.976Z,19.43
2018-12-30T02:48:39.794Z,15.30
2018-12-30T02:51:08.345Z,16.37
2018-12-30T02:53:36.920Z,14.83
2018-12-30T02:58:53.379Z,15.37
2018-12-30T03:01:21.944Z,9.17
2018-12-30T03:03:50.512Z,13.53
2018-12-30T03:06:19.121Z,11.23
2018-12-30T03:08:47.923Z,22.63
2018-12-30T03:11:16.493Z,18.37
2018-12-30T03:13:45.065Z,11.97
2018-12-30T03:16:32.885Z,25.37
2018-12-30T03:19:01.455Z,9.43
2018-12-30T03:21:30.078Z,21.90
2018-12-30T03:23:58.637Z,22.53
2018-12-30T03:26:27.212Z,26.30
2018-12-30T03:28:55.776Z,20.40
2018-12-30T03:36:33.044Z,24.30
2018-12-30T03:39:01.611Z,30.63
2018-12-30T03:41:51.024Z,12.30
2018-12-30T03:44:19.596Z,22.20
2018-12-30T03:46:48.195Z,25.60
2018-12-30T03:49:16.753Z,25.07
2018-12-30T03:51:45.316Z,10.90
2018-12-30T03:54:13.880Z,16.97
2018-12-30T03:56:42.453Z,13.80
2018-12-30T03:59:11.025Z,24.83
2018-12-30T04:01:39.585Z,37.17
2018-12-30T04:04:08.165Z,12.73
2018-12-30T04:06:36.956Z,31.27
2018-12-30T04:09:26.007Z,22.90
2018-12-30T04:11:54.592Z,24.77
2018-12-30T04:14:23.182Z,24.90
2018-12-30T04:16:51.751Z,25.67
2018-12-30T04:19:20.316Z,21.70
2018-12-30T04:21:48.955Z,19.03
2018-12-30T04:24:17.520Z,11.43
2018-12-30T04:26:46.093Z,20.00
2018-12-30T04:29:33.896Z,14.93
2018-12-30T04:32:02.488Z,23.83
2018-12-30T04:34:31.047Z,23.20
2018-12-30T04:36:59.609Z,30.30
2018-12-30T04:39:28.176Z,17.90
2018-12-30T04:41:56.805Z,13.80
2018-12-30T04:44:25.400Z,32.27
2018-12-30T04:46:53.967Z,21.40
2018-12-30T04:49:22.569Z,27.70
2018-12-30T04:51:51.176Z,19.43
2018-12-30T04:54:19.748Z,27.90
2018-12-30T04:56:48.315Z,15.20
2018-12-30T04:59:16.896Z,16.73
2018-12-30T05:01:45.456Z,29.13
2018-12-30T05:04:14.030Z,25.00
2018-12-30T05:06:42.596Z,21.93
2018-12-30T05:09:11.190Z,17.93
2018-12-30T05:11:39.988Z,25.87
2018-12-30T05:14:08.559Z,33.17
2018-12-30T05:16:37.115Z,13.30
2018-12-30T05:19:05.940Z,27.60
2018-12-30T05:21:34.509Z,29.97
2018-12-30T05:24:03.331Z,21.80
2018-12-30T05:26:31.899Z,25.10
2018-12-30T05:29:19.766Z,31.47
2018-12-30T05:31:48.329Z,22.70
2018-12-30T05:34:16.903Z,41.40
2018-12-30T05:36:45.466Z,14.03
2018-12-30T05:39:14.079Z,24.87
2018-12-30T05:41:42.896Z,20.80
2018-12-30T05:44:11.449Z,20.00
2018-12-30T05:46:40.200Z,27.20
2018-12-30T05:49:08.756Z,16.90
2018-12-30T05:51:37.326Z,19.47
2018-12-30T05:54:05.886Z,12.77
2018-12-30T05:56:34.460Z,22.50
2018-12-30T05:59:03.018Z,22.90
2018-12-30T06:01:31.600Z,22.40
2018-12-30T06:04:00.159Z,32.03
2018-12-30T06:06:28.806Z,16.20
2018-12-30T06:08:57.392Z,19.73
2018-12-30T06:11:25.981Z,23.63
2018-12-30T06:13:54.557Z,16.43
2018-12-30T06:16:23.109Z,23.87
2018-12-30T06:18:51.704Z,24.90
2018-12-30T06:24:07.888Z,26.10
2018-12-30T06:26:36.482Z,17.07
2018-12-30T06:29:05.065Z,20.07
2018-12-30T06:31:33.639Z,9.80
2018-12-30T06:34:02.203Z,16.77
2018-12-30T06:36:30.766Z,18.67
2018-12-30T06:38:59.336Z,19.63
2018-12-30T06:41:27.915Z,14.43
2018-12-30T06:43:56.503Z,30.47
2018-12-30T06:46:25.062Z,18.93
2018-12-30T06:48:53.648Z,24.60
2018-12-30T06:51:22.222Z,20.93
2018-12-30T06:53:50.786Z,17.37
2018-12-30T06:56:19.354Z,30.13
2018-12-30T06:58:47.932Z,14.67
2018-12-30T07:01:16.491Z,23.23
2018-12-30T07:03:45.109Z,17.27
2018-12-30T07:06:13.678Z,11.77
2018-12-30T07:08:42.253Z,24.90
2018-12-30T07:11:10.979Z,21.43
2018-12-30T07:13:39.781Z,19.03
2018-12-30T07:16:08.367Z,7.67
2018-12-30T07:18:36.922Z,27.07
2018-12-30T07:21:05.517Z,15.73
2018-12-30T07:23:34.168Z,16.20
2018-12-30T07:26:02.756Z,16.07
2018-12-30T07:28:31.310Z,26.67
2018-12-30T07:31:00.116Z,16.20
2018-12-30T07:33:28.693Z,9.73
2018-12-30T07:35:57.299Z,16.67
2018-12-30T07:38:25.904Z,16.73
2018-12-30T07:40:54.466Z,15.40
2018-12-30T07:43:23.044Z,14.33
2018-12-30T07:45:51.660Z,20.93
2018-12-30T07:48:20.258Z,12.43
2018-12-30T07:50:48.815Z,8.80
2018-12-30T07:53:17.606Z,27.70
2018-12-30T07:55:46.163Z,7.73
2018-12-30T07:58:14.730Z,15.93
2018-12-30T08:00:43.383Z,12.77
2018-12-30T08:03:11.958Z,13.53
2018-12-30T08:05:40.558Z,14.43
2018-12-30T08:08:09.123Z,12.23
2018-12-30T08:10:37.790Z,11.10
2018-12-30T08:13:06.368Z,15.93
2018-12-30T08:15:54.203Z,14.73
2018-12-30T08:18:22.773Z,10.37
2018-12-30T08:20:51.364Z,17.13
2018-12-30T08:23:21.742Z,12.20
2018-12-30T08:25:50.269Z,11.73
2018-12-30T08:28:25.071Z,8.67
2018-12-30T08:30:49.143Z,11.17
2018-12-30T08:33:17.730Z,13.70
2018-12-30T08:35:46.295Z,11.87
2018-12-30T08:38:14.861Z,7.30
2018-12-30T08:40:43.436Z,11.83
2018-12-30T08:43:12.042Z,17.13
2018-12-30T08:45:40.607Z,9.80
2018-12-30T08:48:09.324Z,8.57
2018-12-30T08:50:37.890Z,4.80
2018-12-30T08:53:06.467Z,12.00
2018-12-30T08:55:35.329Z,14.03
2018-12-30T08:58:04.256Z,10.90
2018-12-30T09:00:32.928Z,8.73
2018-12-30T09:03:01.522Z,16.03
2018-12-30T09:05:30.147Z,11.80
2018-12-30T09:07:58.735Z,9.43
2018-12-30T09:10:27.350Z,19.17
2018-12-30T09:12:57.959Z,19.33
2018-12-30T09:15:26.515Z,10.67
2018-12-30T09:17:55.136Z,11.67
2018-12-30T09:20:23.711Z,12.30
2018-12-30T09:22:52.299Z,15.20
2018-12-30T09:25:40.116Z,13.90
2018-12-30T09:28:08.708Z,20.70
2018-12-30T09:30:37.291Z,20.57
2018-12-30T09:33:05.885Z,12.83
2018-12-30T09:35:34.668Z,13.27
2018-12-30T09:38:03.242Z,10.90
2018-12-30T09:40:31.846Z,21.27
2018-12-30T09:43:00.451Z,25.10
2018-12-30T09:45:29.143Z,10.63
2018-12-30T09:47:57.743Z,9.73
2018-12-30T09:50:45.553Z,14.80
2018-12-30T09:53:14.129Z,14.50
2018-12-30T09:55:45.650Z,7.60
2018-12-30T09:58:14.247Z,14.87
2018-12-30T10:00:42.882Z,8.73
2018-12-30T10:03:11.511Z,4.17
2018-12-30T10:05:40.095Z,7.97
2018-12-30T10:08:08.705Z,10.47
2018-12-30T10:10:37.514Z,10.83
2018-12-30T10:13:06.464Z,7.20
2018-12-30T10:15:35.157Z,8.23
2018-12-30T10:18:03.795Z,16.20
2018-12-30T10:20:32.412Z,12.57
2018-12-30T10:23:00.973Z,14.67
2018-12-30T10:25:29.845Z,8.50
2018-12-30T10:27:58.407Z,6.93
2018-12-30T10:30:27.207Z,4.10
2018-12-30T10:32:56.088Z,8.47
2018-12-30T10:35:24.662Z,8.20
2018-12-30T10:37:53.263Z,6.80
2018-12-30T10:40:21.831Z,12.10
2018-12-30T10:42:50.387Z,6.30
2018-12-30T10:45:18.947Z,7.90
2018-12-30T10:47:47.530Z,7.97
2018-12-30T10:50:16.091Z,6.77
2018-12-30T10:52:44.660Z,10.13
2018-12-30T10:55:13.463Z,4.17
2018-12-30T10:57:42.048Z,8.30
2018-12-30T11:02:46.254Z,15.03
2018-12-30T11:05:14.898Z,4.30
2018-12-30T11:07:43.490Z,9.27
2018-12-30T11:10:12.155Z,9.53
2018-12-30T11:12:40.834Z,17.20
2018-12-30T11:15:09.711Z,8.73
2018-12-30T11:17:38.500Z,6.00
2018-12-30T11:20:07.408Z,10.00
2018-12-30T11:22:36.071Z,14.90
2018-12-30T11:25:05.170Z,5.47
2018-12-30T11:27:34.212Z,9.77
2018-12-30T11:30:03.170Z,5.57
2018-12-30T11:32:32.537Z,7.07
2018-12-30T11:35:01.601Z,7.00
2018-12-30T11:37:30.526Z,6.33
2018-12-30T11:39:59.492Z,17.53
2018-12-30T11:42:28.296Z,9.93
2018-12-30T11:44:56.860Z,12.40
2018-12-30T11:47:25.472Z,6.70
2018-12-30T11:49:54.083Z,5.60
2018-12-30T11:52:23.027Z,6.00
2018-12-30T11:54:51.720Z,11.90
2018-12-30T11:57:20.307Z,9.60
2018-12-30T11:59:49.151Z,10.43
2018-12-30T12:04:51.644Z,8.60
2018-12-30T12:07:20.216Z,10.53
2018-12-30T12:09:48.794Z,10.13
2018-12-30T12:12:17.499Z,12.07
2018-12-30T12:14:46.312Z,10.77
2018-12-30T12:17:14.967Z,10.73
2018-12-30T12:19:43.593Z,19.93
2018-12-30T12:22:12.186Z,16.67
2018-12-30T12:24:41.033Z,14.90
2018-12-30T12:27:09.676Z,16.90
2018-12-30T12:29:38.289Z,14.60
2018-12-30T12:32:07.856Z,23.63
2018-12-30T12:34:36.497Z,18.93
2018-12-30T12:37:05.066Z,11.70
2018-12-30T12:39:33.642Z,15.27
2018-12-30T12:42:02.208Z,15.53
2018-12-30T12:44:30.791Z,13.50
2018-12-30T12:46:59.382Z,16.20
2018-12-30T12:49:28.054Z,15.57
2018-12-30T12:54:44.363Z,12.83
2018-12-30T12:57:13.608Z,23.63
2018-12-30T12:59:42.834Z,18.17
2018-12-30T13:02:12.130Z,18.70
2018-12-30T13:04:41.452Z,14.27
2018-12-30T13:07:10.617Z,13.37
2018-12-30T13:09:41.069Z,13.10
2018-12-30T13:12:10.355Z,15.87
2018-12-30T13:14:39.421Z,14.53
2018-12-30T13:17:08.700Z,10.03
2018-12-30T13:19:37.866Z,17.80
2018-12-30T13:22:06.460Z,19.63
2018-12-30T13:24:39.969Z,14.50
2018-12-30T13:29:39.892Z,14.53
2018-12-30T13:32:08.517Z,19.03
2018-12-30T13:34:37.114Z,15.60
2018-12-30T13:37:25.146Z,18.03
2018-12-30T13:39:53.762Z,21.53
2018-12-30T13:42:22.443Z,17.60
2018-12-30T13:44:51.026Z,20.77
2018-12-30T13:47:19.607Z,16.30
2018-12-30T13:49:48.208Z,21.13
2018-12-30T13:55:04.936Z,14.60
2018-12-30T13:57:33.570Z,20.50
2018-12-30T14:02:36.967Z,19.83
2018-12-30T14:05:05.989Z,14.80
2018-12-30T14:07:34.552Z,15.13
2018-12-30T14:10:03.146Z,12.23
2018-12-30T14:12:31.736Z,10.50
2018-12-30T14:15:00.354Z,10.90
2018-12-30T14:17:28.907Z,21.23
2018-12-30T14:19:57.522Z,22.97
2018-12-30T14:22:26.092Z,16.50
2018-12-30T14:24:55.478Z,16.57
2018-12-30T14:27:24.289Z,17.87
2018-12-30T14:29:53.063Z,15.13
2018-12-30T14:32:21.871Z,15.27
2018-12-30T14:34:51.432Z,16.37
2018-12-30T14:37:19.990Z,15.20
2018-12-30T14:39:49.562Z,17.67
2018-12-30T14:42:18.148Z,13.97
2018-12-30T14:44:46.745Z,15.60
2018-12-30T14:47:15.337Z,17.07
2018-12-30T14:49:43.936Z,19.83
2018-12-30T14:52:13.238Z,27.50
2018-12-30T14:54:41.932Z,21.53
2018-12-30T14:57:10.523Z,16.80
2018-12-30T14:59:39.090Z,22.03
2018-12-30T15:02:07.675Z,27.43
2018-12-30T15:04:36.277Z,21.93
2018-12-30T15:07:04.971Z,22.47
2018-12-30T15:09:35.809Z,18.10
2018-12-30T15:12:03.872Z,20.60
2018-12-30T15:14:32.475Z,30.80
2018-12-30T15:17:01.039Z,42.83
2018-12-30T15:19:29.720Z,24.77
2018-12-30T15:21:58.316Z,33.13
2018-12-30T15:24:27.158Z,39.83
2018-12-30T15:26:55.750Z,23.50
2018-12-30T15:29:24.571Z,28.50
2018-12-30T15:31:53.406Z,29.37
2018-12-30T15:34:22.005Z,35.77
2018-12-30T15:36:50.684Z,30.00
2018-12-30T15:39:19.199Z,30.73
2018-12-30T15:41:47.792Z,27.03
2018-12-30T15:44:16.381Z,24.53
2018-12-30T15:46:45.085Z,23.00
2018-12-30T15:49:13.664Z,22.77
2018-12-30T15:51:42.277Z,19.80
2018-12-30T15:54:11.851Z,27.10
2018-12-30T15:56:40.445Z,27.83
2018-12-30T15:59:09.022Z,25.40
2018-12-30T16:01:37.605Z,22.13
2018-12-30T16:04:06.194Z,16.63
2018-12-30T16:06:34.778Z,31.33
2018-12-30T16:09:04.833Z,32.83
2018-12-30T16:11:33.668Z,26.00
2018-12-30T16:14:02.249Z,26.70
2018-12-30T16:16:30.870Z,23.67
2018-12-30T16:18:59.455Z,25.67
2018-12-30T16:21:28.058Z,24.27
2018-12-30T16:23:56.680Z,19.30
2018-12-30T16:26:25.347Z,21.60
2018-12-30T16:28:53.919Z,18.80
2018-12-30T16:31:27.991Z,20.57
2018-12-30T16:33:52.850Z,21.93
2018-12-30T16:36:21.446Z,19.40
2018-12-30T16:38:50.027Z,18.30
2018-12-30T16:41:18.605Z,15.03
2018-12-30T16:43:47.264Z,18.50
2018-12-30T16:46:15.861Z,14.70
2018-12-30T16:48:44.465Z,12.30
2018-12-30T16:51:13.040Z,14.03
2018-12-30T16:53:41.611Z,10.13
2018-12-30T16:56:10.420Z,11.97
2018-12-30T16:58:39.299Z,9.40
2018-12-30T17:01:07.882Z,9.60
2018-12-30T17:03:36.484Z,8.10
2018-12-30T17:06:05.082Z,7.80
2018-12-30T17:08:33.665Z,7.83
2018-12-30T17:11:02.256Z,11.87
2018-12-30T17:13:30.927Z,7.03
2018-12-30T17:15:59.501Z,6.80
2018-12-30T17:18:28.089Z,5.73
2018-12-30T17:20:56.689Z,8.00
2018-12-30T17:23:25.408Z,10.50
2018-12-30T17:25:54.011Z,6.50
2018-12-30T17:28:22.608Z,9.10
2018-12-30T17:30:51.203Z,11.90
2018-12-30T17:33:19.784Z,11.30
2018-12-30T17:35:48.350Z,10.67
2018-12-30T17:38:17.181Z,8.80
2018-12-30T17:40:45.752Z,9.30
2018-12-30T17:43:14.313Z,10.13
2018-12-30T17:45:42.938Z,9.40
2018-12-30T17:48:11.526Z,17.40
2018-12-30T17:50:40.093Z,8.13
2018-12-30T17:53:08.737Z,10.13
2018-12-30T17:55:37.341Z,10.10
2018-12-30T17:58:05.905Z,10.50
2018-12-30T18:00:34.506Z,10.20
2018-12-30T18:03:03.095Z,7.23
2018-12-30T18:05:31.699Z,7.50
2018-12-30T18:08:00.275Z,6.67
2018-12-30T18:10:29.146Z,7.00
2018-12-30T18:12:58.193Z,6.33
2018-12-30T18:15:26.974Z,11.10
2018-12-30T18:17:55.705Z,7.10
2018-12-30T18:20:24.269Z,6.00
2018-12-30T18:22:52.837Z,5.23
2018-12-30T18:25:21.435Z,9.30
2018-12-30T18:27:50.099Z,7.80
2018-12-30T18:30:18.660Z,6.43
2018-12-30T18:32:47.260Z,5.90
2018-12-30T18:35:15.850Z,5.97
2018-12-30T18:37:44.643Z,8.60
2018-12-30T18:40:13.234Z,8.07
2018-12-30T18:42:41.898Z,6.60
2018-12-30T18:45:10.459Z,7.07
2018-12-30T18:47:39.055Z,9.53
2018-12-30T18:50:08.476Z,5.03
2018-12-30T18:52:37.273Z,7.33
2018-12-30T18:55:06.429Z,5.83
2018-12-30T18:57:34.985Z,8.90
2018-12-30T19:00:03.582Z,21.33
2018-12-30T19:02:32.144Z,9.03
2018-12-30T19:05:00.704Z,12.60
2018-12-30T19:07:29.367Z,6.50
2018-12-30T19:09:57.933Z,7.50
2018-12-30T19:12:26.527Z,7.93
2018-12-30T19:14:55.103Z,4.90
2018-12-30T19:17:23.907Z,3.90
2018-12-30T19:19:52.489Z,6.40
2018-12-30T19:22:21.063Z,6.27
2018-12-30T19:24:49.649Z,4.00
2018-12-30T19:27:18.232Z,4.47
2018-12-30T19:29:46.799Z,13.60
2018-12-30T19:32:15.368Z,5.87
2018-12-30T19:34:43.953Z,6.77
2018-12-30T19:37:12.545Z,3.83
2018-12-30T19:39:41.124Z,3.20
2018-12-30T19:42:09.890Z,2.20
2018-12-30T19:44:38.710Z,3.30
2018-12-30T19:47:07.511Z,3.10
2018-12-30T19:49:36.109Z,2.67
2018-12-30T19:52:04.682Z,2.17
2018-12-30T19:54:33.523Z,1.80
2018-12-30T19:57:02.082Z,1.60
2018-12-30T19:59:30.776Z,2.10
2018-12-30T20:01:59.332Z,1.90
2018-12-30T20:04:27.931Z,2.37
2018-12-30T20:06:56.495Z,2.20
2018-12-30T20:09:25.746Z,2.73
2018-12-30T20:11:54.567Z,11.90
2018-12-30T20:14:23.124Z,2.77
2018-12-30T20:16:51.688Z,2.00
2018-12-30T20:19:20.261Z,3.30
2018-12-30T20:21:48.848Z,2.10
2018-12-30T20:24:17.416Z,1.87
2018-12-30T20:26:45.985Z,2.30
2018-12-30T20:29:14.545Z,2.03
2018-12-30T20:31:43.136Z,2.47
2018-12-30T20:34:11.702Z,1.70
2018-12-30T20:36:39.329Z,1.90
2018-12-30T20:39:08.316Z,1.37
2018-12-30T20:41:36.885Z,1.60
2018-12-30T20:44:05.455Z,1.40
2018-12-30T20:46:34.022Z,1.13
2018-12-30T20:49:02.832Z,1.23
2018-12-30T20:51:31.394Z,1.30
2018-12-30T20:53:59.997Z,1.50
2018-12-30T20:56:28.641Z,1.30
2018-12-30T20:58:57.208Z,1.07
2018-12-30T21:01:25.809Z,1.30
2018-12-30T21:03:54.382Z,1.33
2018-12-30T21:06:22.971Z,5.30
2018-12-30T21:08:51.539Z,2.60
2018-12-30T21:11:20.106Z,12.60
2018-12-30T21:13:48.700Z,1.07
2018-12-30T21:16:17.289Z,1.30
2018-12-30T21:18:45.873Z,1.00
2018-12-30T21:21:14.455Z,1.10
2018-12-30T21:23:43.046Z,1.00
2018-12-30T21:26:11.617Z,1.43
2018-12-30T21:28:40.186Z,0.83
2018-12-30T21:31:08.795Z,1.13
2018-12-30T21:33:37.379Z,1.43
2018-12-30T21:36:05.951Z,0.73
2018-12-30T21:38:34.523Z,1.17
2018-12-30T21:41:03.081Z,1.20
2018-12-30T21:43:31.643Z,1.03
2018-12-30T21:46:00.217Z,1.37
2018-12-30T21:48:28.819Z,1.50
2018-12-30T21:50:57.414Z,1.10
2018-12-30T21:53:25.975Z,1.07
2018-12-30T21:55:54.552Z,1.77
2018-12-30T21:58:23.171Z,1.40
2018-12-30T22:00:51.732Z,1.30
2018-12-30T22:03:20.351Z,1.20
2018-12-30T22:05:48.914Z,1.07
2018-12-30T22:08:17.481Z,2.00
2018-12-30T22:10:46.265Z,1.50
2018-12-30T22:13:14.839Z,2.03
2018-12-30T22:15:43.396Z,2.03
2018-12-30T22:18:11.979Z,2.20
2018-12-30T22:20:40.558Z,1.83
2018-12-30T22:23:09.153Z,2.83
2018-12-30T22:25:37.727Z,2.50
2018-12-30T22:28:06.316Z,2.50
2018-12-30T22:30:34.900Z,1.93
2018-12-30T22:33:03.497Z,2.27
2018-12-30T22:35:33.065Z,2.07
2018-12-30T22:38:01.643Z,2.30
2018-12-30T22:40:30.256Z,2.03
2018-12-30T22:42:59.086Z,2.40
2018-12-30T22:45:27.717Z,1.83
2018-12-30T22:47:56.284Z,1.90
2018-12-30T22:50:25.089Z,2.00
2018-12-30T22:52:53.916Z,1.87
2018-12-30T22:55:22.510Z,1.80
2018-12-30T22:57:51.332Z,2.10
2018-12-30T23:00:37.958Z,2.07
2018-12-30T23:03:06.551Z,2.10
2018-12-30T23:05:35.110Z,1.60
2018-12-30T23:08:03.703Z,1.63
2018-12-30T23:10:32.269Z,2.03
2018-12-30T23:13:01.092Z,2.00
2018-12-30T23:15:29.709Z,2.07
2018-12-30T23:17:58.290Z,1.80
2018-12-30T23:20:26.970Z,2.00
2018-12-30T23:22:55.539Z,3.00
2018-12-30T23:25:24.105Z,1.80
2018-12-30T23:27:52.667Z,1.87
2018-12-30T23:30:21.239Z,3.10
2018-12-30T23:32:49.798Z,3.63
2018-12-30T23:35:18.382Z,1.90
2018-12-30T23:37:46.935Z,1.97
2018-12-30T23:40:15.527Z,4.23
2018-12-30T23:42:44.094Z,2.10
2018-12-30T23:45:12.703Z,16.47
2018-12-30T23:47:41.299Z,2.93
2018-12-30T23:50:09.884Z,11.33
2018-12-30T23:52:38.475Z,2.30
2018-12-30T23:55:07.051Z,1.63
2018-12-30T23:57:35.692Z,2.97
